M I D A S
Marine Information and Data Acquisition System
Tripno 934 of the Zeeleeuw from 2005-08-24 05:00:00 to 2005-08-24 13:30:53
Back to CruiseResearch ActivitiesStationsMapUnderway DataData graphs

EquipmentUnitsComment
TimeDGPSUTC
LatitudeDGPSDM.mWGS84
LongitudeDGPSDM.mWGS84
TemperatureSBE03/SBE38deg celciusITS90
ConductivitySBE21S/mITS90
SalinitySBE21 Practical Salinity Units
ChlorophylAChelsea fluorimeterg/lCalibrated in Aceton
Missing or incorrect values are displayed as -999
Sea surface data collected by the RV Zeeleeuw from 2005-08-24 05:00:00 to 2005-08-24 13:34:21
Time Latitude Longitude Temperature Conductivity Salinity ChlorophylA
2005-08-24 05:53:25 51°13.599 2°56.096 -999 0.004891 0.030259 0.600836
2005-08-24 05:54:25 51°13.595 2°56.1 -999 0.004891 0.03026 0.600836
2005-08-24 05:55:25 51°13.597 2°56.099 -999 0.004891 0.030261 0.600836
2005-08-24 05:56:25 51°13.597 2°56.099 -999 0.004891 0.030262 0.600836
2005-08-24 05:57:25 51°13.597 2°56.099 -999 0.004891 0.030263 0.600836
2005-08-24 05:58:25 51°13.597 2°56.098 -999 0.004891 0.030264 0.600836
2005-08-24 05:59:24 51°13.599 2°56.099 -999 0.004788 0.02978 0.600836
2005-08-24 06:00:24 51°13.599 2°56.098 -999 0.004788 0.029781 0.600836
2005-08-24 06:01:24 51°13.599 2°56.098 -999 0.004788 0.029782 0.600836
2005-08-24 06:02:24 51°13.598 2°56.097 -999 0.004788 0.029783 0.600836
2005-08-24 06:03:24 51°13.598 2°56.097 -999 0.004788 0.029784 0.600836
2005-08-24 06:04:26 51°13.598 2°56.096 -999 0.004788 0.029785 0.600836
2005-08-24 06:05:24 51°13.599 2°56.096 -999 0.004788 0.029786 0.600836
2005-08-24 06:06:23 51°13.597 2°56.097 -999 0.004788 0.029788 0.600836
2005-08-24 06:07:24 51°13.597 2°56.096 -999 0.004788 0.029789 0.600836
2005-08-24 06:08:22 51°13.597 2°56.097 -999 0.004788 0.02979 0.600836
2005-08-24 06:09:24 51°13.596 2°56.097 -999 0.004788 0.029791 0.600836
2005-08-24 06:10:24 51°13.597 2°56.097 -999 0.004788 0.029792 0.600836
2005-08-24 06:11:23 51°13.597 2°56.096 -999 0.004788 0.029793 0.600836
2005-08-24 06:12:22 51°13.597 2°56.096 -999 0.004788 0.029795 0.567127
2005-08-24 06:13:24 51°13.598 2°56.096 -999 0.004788 0.029796 0.600836
2005-08-24 06:14:23 51°13.599 2°56.096 -999 0.004788 0.029797 0.600836
2005-08-24 06:15:23 51°13.598 2°56.097 -999 0.004788 0.029798 0.567127
2005-08-24 06:16:24 51°13.597 2°56.096 -999 0.004788 0.029799 0.567127
2005-08-24 06:17:23 51°13.595 2°56.098 -999 0.004788 0.0298 0.600836
2005-08-24 06:18:22 51°13.596 2°56.097 -999 0.004788 0.029801 0.567127
2005-08-24 06:19:24 51°13.597 2°56.097 -999 0.004788 0.029803 0.567127
2005-08-24 06:20:22 51°13.597 2°56.098 -999 0.004788 0.029804 0.567127
2005-08-24 06:21:24 51°13.597 2°56.097 -999 0.004788 0.029805 0.567127
2005-08-24 06:22:24 51°13.598 2°56.096 -999 0.004788 0.029806 0.567127
2005-08-24 06:23:23 51°13.597 2°56.095 -999 0.004788 0.029807 0.567127
2005-08-24 06:24:23 51°13.597 2°56.097 -999 0.004788 0.029808 0.567127
2005-08-24 06:25:24 51°13.599 2°56.096 -999 0.004788 0.029809 0.567127
2005-08-24 06:26:23 51°13.601 2°56.096 -999 0.004788 0.02981 0.567127
2005-08-24 06:27:23 51°13.6 2°56.096 -999 0.004788 0.029811 0.567127
2005-08-24 06:28:23 51°13.599 2°56.096 -999 0.004788 0.029812 0.567127
2005-08-24 06:29:24 51°13.599 2°56.097 -999 0.004788 0.029813 0.567127
2005-08-24 06:30:23 51°13.596 2°56.095 -999 0.004788 0.029814 0.567127
2005-08-24 06:31:23 51°13.596 2°56.095 -999 0.004788 0.029814 0.567127
2005-08-24 06:32:24 51°13.598 2°56.08 -999 0.004788 0.029814 0.567127
2005-08-24 06:33:25 51°13.63 2°55.975 -999 0.004788 0.029815 0.533418
2005-08-24 06:34:24 51°13.669 2°55.861 -999 0.004685 0.02933 0.567127
2005-08-24 06:35:25 51°13.683 2°55.763 -999 0.004685 0.029331 0.567127
2005-08-24 06:36:22 51°13.693 2°55.749 -999 0.004685 0.029332 0.567127
2005-08-24 06:37:23 51°13.761 2°55.705 -999 0.004685 0.029345 0.567127
2005-08-24 06:38:24 51°13.884 2°55.595 -999 3.625887 25.977536 -0.241899
2005-08-24 06:39:24 51°14.034 2°55.484 -999 3.77951 27.525079 -0.208189
2005-08-24 06:40:24 51°14.193 2°55.353 -999 3.785002 27.622738 -0.343027
2005-08-24 06:41:23 51°14.326 2°55.138 -999 3.756616 27.430226 -0.376736
2005-08-24 06:42:24 51°14.458 2°54.877 -999 3.794638 27.758161 -0.376736
2005-08-24 06:43:24 51°14.629 2°54.677 -999 4.07685 30.204525 -0.241899
2005-08-24 06:44:23 51°14.801 2°54.48 -999 4.121432 30.597409 -0.343027
2005-08-24 06:45:23 51°14.99 2°54.285 -999 4.117389 30.612601 -0.410446
2005-08-24 06:46:23 51°15.186 2°54.103 -999 4.255307 31.684474 -0.511574
2005-08-24 06:47:24 51°15.383 2°53.91 -999 4.27439 31.844985 -0.477864
2005-08-24 06:48:22 51°15.566 2°53.729 -999 4.224402 31.492843 -0.578993
2005-08-24 06:49:24 51°15.77 2°53.55 -999 4.210402 31.36617 -0.545283
2005-08-24 06:50:24 51°15.974 2°53.393 -999 4.201172 31.275671 -0.444155
2005-08-24 06:51:24 51°16.184 2°53.24 -999 4.208534 31.323026 -0.477864
2005-08-24 06:52:24 51°16.394 2°53.093 -999 4.210505 31.347196 -0.578993
2005-08-24 06:53:24 51°16.6 2°52.94 -999 4.256448 31.715813 -0.612702
2005-08-24 06:54:22 51°16.798 2°52.798 -999 4.276257 31.844667 -0.680121
2005-08-24 06:55:23 51°17.009 2°52.643 -999 4.291919 31.979217 -0.71383
2005-08-24 06:56:22 51°17.209 2°52.494 -999 4.303329 32.076634 -0.74754
2005-08-24 06:57:24 51°17.411 2°52.309 -999 4.304988 32.092294 -0.74754
2005-08-24 06:58:23 51°17.546 2°52.028 -999 4.298765 32.054593 -0.74754
2005-08-24 06:59:24 51°17.661 2°51.71 -999 4.29223 31.997115 -0.74754
2005-08-24 07:00:24 51°17.77 2°51.392 -999 4.301151 32.072005 -0.74754
2005-08-24 07:01:24 51°17.879 2°51.071 -999 4.307685 32.123974 -0.71383
2005-08-24 07:02:23 51°17.981 2°50.753 -999 4.32366 32.252135 -0.71383
2005-08-24 07:03:24 51°18.078 2°50.419 -999 4.335174 32.345013 -0.74754
2005-08-24 07:04:24 51°18.173 2°50.091 -999 4.334447 32.329676 -0.74754
2005-08-24 07:05:24 51°18.269 2°49.763 -999 4.342435 32.393152 -0.71383
2005-08-24 07:06:23 51°18.363 2°49.441 -999 4.340049 32.373265 -0.71383
2005-08-24 07:07:22 51°18.458 2°49.119 -999 4.32563 32.266088 -0.74754
2005-08-24 07:08:23 51°18.555 2°48.786 -999 4.3081 32.128046 -0.680121
2005-08-24 07:09:24 51°18.651 2°48.445 -999 4.297209 32.029369 -0.680121
2005-08-24 07:10:24 51°18.744 2°48.112 -999 4.289844 31.957064 -0.680121
2005-08-24 07:11:23 51°18.837 2°47.786 -999 4.27522 31.823866 -0.680121
2005-08-24 07:12:24 51°18.933 2°47.451 -999 4.280613 31.852861 -0.71383
2005-08-24 07:13:22 51°19.025 2°47.134 -999 4.287769 31.902578 -0.74754
2005-08-24 07:14:24 51°19.122 2°46.794 -999 4.289948 31.929827 -0.781249
2005-08-24 07:15:23 51°19.218 2°46.469 -999 4.291607 31.948506 -0.781249
2005-08-24 07:16:24 51°19.32 2°46.134 -999 4.297831 32.005146 -0.814958
2005-08-24 07:17:24 51°19.421 2°45.809 -999 4.299698 32.029248 -0.814958
2005-08-24 07:18:23 51°19.515 2°45.486 -999 4.338389 32.350765 -0.814958
2005-08-24 07:19:24 51°19.613 2°45.15 -999 4.356646 32.48181 -0.814958
2005-08-24 07:20:22 51°19.706 2°44.832 -999 4.359032 32.488649 -0.814958
2005-08-24 07:21:24 51°19.801 2°44.494 -999 4.363804 32.525293 -0.848668
2005-08-24 07:22:24 51°19.882 2°44.161 -999 4.361003 32.493271 -0.814958
2005-08-24 07:23:23 51°19.965 2°43.833 -999 4.358513 32.47378 -0.848668
2005-08-24 07:24:24 51°20.051 2°43.49 -999 4.361211 32.512387 -0.848668
2005-08-24 07:25:24 51°20.136 2°43.153 -999 4.361937 32.51968 -0.848668
2005-08-24 07:26:24 51°20.225 2°42.816 -999 4.362455 32.526489 -0.882377
2005-08-24 07:27:24 51°20.314 2°42.482 -999 4.361937 32.522788 -0.882377
2005-08-24 07:28:23 51°20.403 2°42.156 -999 4.362767 32.539657 -0.882377
2005-08-24 07:29:22 51°20.482 2°41.824 -999 4.396899 32.83755 -0.882377
2005-08-24 07:30:24 51°20.571 2°41.472 -999 4.410386 32.94894 -0.882377
2005-08-24 07:31:24 51°20.644 2°41.132 -999 4.410282 32.94177 -0.882377
2005-08-24 07:32:24 51°20.692 2°40.78 -999 4.406028 32.904355 -0.882377
2005-08-24 07:33:24 51°20.719 2°40.422 -999 4.409141 32.920272 -0.882377
2005-08-24 07:34:24 51°20.737 2°40.064 -999 4.414432 32.967606 -0.882377
2005-08-24 07:35:24 51°20.754 2°39.705 -999 4.417234 32.996051 -0.882377
2005-08-24 07:36:23 51°20.771 2°39.35 -999 4.416092 32.985255 -0.882377
2005-08-24 07:37:23 51°20.789 2°38.989 -999 4.416404 32.993536 -0.882377
2005-08-24 07:38:23 51°20.805 2°38.63 -999 4.418167 33.01143 -0.916087
2005-08-24 07:39:24 51°20.824 2°38.258 -999 4.42128 33.022276 -0.916087
2005-08-24 07:40:23 51°20.841 2°37.901 -999 4.424911 33.053875 -0.916087
2005-08-24 07:41:24 51°20.861 2°37.533 -999 4.4329 33.122532 -0.916087
2005-08-24 07:42:24 51°20.88 2°37.168 -999 4.435287 33.143745 -0.882377
2005-08-24 07:43:24 51°20.9 2°36.802 -999 4.435079 33.138207 -0.916087
2005-08-24 07:44:24 51°20.92 2°36.439 -999 4.440163 33.18959 -0.916087
2005-08-24 07:45:24 51°20.941 2°36.073 -999 4.445144 33.235053 -0.916087
2005-08-24 07:46:24 51°20.961 2°35.707 -999 4.450643 33.280418 -0.882377
2005-08-24 07:47:24 51°20.984 2°35.342 -999 4.462057 33.384228 -0.916087
2005-08-24 07:48:24 51°21.006 2°34.974 -999 4.469632 33.458539 -0.916087
2005-08-24 07:49:24 51°21.028 2°34.608 -999 4.480735 33.574072 -0.916087
2005-08-24 07:50:23 51°21.048 2°34.251 -999 4.499622 33.767467 -0.916087
2005-08-24 07:51:25 51°21.067 2°33.883 -999 4.513528 33.865465 -0.916087
2005-08-24 07:52:24 51°21.086 2°33.53 -999 4.518716 33.901904 -0.916087
2005-08-24 07:53:25 51°21.129 2°33.176 -999 4.523282 33.940265 -0.916087
2005-08-24 07:54:24 51°21.321 2°33.033 -999 4.522348 33.92396 -0.916087
2005-08-24 07:55:23 51°21.546 2°33.012 -999 4.522867 33.933523 -0.916087
2005-08-24 07:56:24 51°21.782 2°32.988 -999 4.523386 33.931375 -0.916087
2005-08-24 07:57:24 51°22.013 2°32.97 -999 4.522971 33.927889 -0.916087
2005-08-24 07:58:24 51°22.237 2°32.947 -999 4.521518 33.932602 -0.916087
2005-08-24 07:59:24 51°22.46 2°32.917 -999 4.511452 33.835699 -0.916087
2005-08-24 08:00:24 51°22.68 2°32.891 -999 4.483122 33.584431 -0.916087
2005-08-24 08:01:24 51°22.853 2°32.716 -999 4.477933 33.534509 -0.916087
2005-08-24 08:02:24 51°22.878 2°32.359 -999 4.478348 33.527712 -0.916087
2005-08-24 08:03:24 51°22.885 2°31.99 -999 4.47866 33.53867 -0.916087
2005-08-24 08:04:23 51°22.886 2°31.628 -999 4.488206 33.599383 -0.916087
2005-08-24 08:05:24 51°22.887 2°31.254 -999 4.487687 33.58732 -0.916087
2005-08-24 08:06:24 51°22.881 2°30.885 -999 4.487168 33.577833 -0.916087
2005-08-24 08:07:24 51°22.869 2°30.518 -999 4.494328 33.640383 -0.916087
2005-08-24 08:08:24 51°22.86 2°30.152 -999 4.501489 33.699736 -0.916087
2005-08-24 08:09:24 51°22.848 2°29.782 -999 4.501281 33.699286 -0.916087
2005-08-24 08:10:24 51°22.835 2°29.413 -999 4.504602 33.727117 -0.916087
2005-08-24 08:11:24 51°22.818 2°29.045 -999 4.506677 33.749035 -0.916087
2005-08-24 08:12:22 51°22.803 2°28.692 -999 4.509168 33.774441 -0.949796
2005-08-24 08:13:24 51°22.788 2°28.309 -999 4.514461 33.827245 -0.916087
2005-08-24 08:14:22 51°22.773 2°27.96 -999 4.518405 33.879797 -0.916087
2005-08-24 08:15:23 51°22.752 2°27.589 -999 4.538954 34.130241 -0.949796
2005-08-24 08:16:22 51°22.732 2°27.239 -999 4.5402 34.166342 -0.949796
2005-08-24 08:17:24 51°22.712 2°26.858 -999 4.536153 34.134858 -0.949796
2005-08-24 08:18:23 51°22.694 2°26.498 -999 4.539162 34.160224 -0.949796
2005-08-24 08:19:24 51°22.676 2°26.127 -999 4.536775 34.14142 -0.916087
2005-08-24 08:20:23 51°22.745 2°25.788 -999 4.540408 34.170064 -0.949796
2005-08-24 08:21:24 51°22.915 2°25.533 -999 4.545701 34.230489 -0.949796
2005-08-24 08:22:23 51°23.137 2°25.47 -999 4.541964 34.190422 -0.949796
2005-08-24 08:23:24 51°23.364 2°25.46 -999 4.561477 34.422581 -0.949796
2005-08-24 08:24:24 51°23.583 2°25.5 -999 4.573828 34.550357 -0.949796
2005-08-24 08:25:23 51°23.8 2°25.554 -999 4.576735 34.580299 -0.949796
2005-08-24 08:26:24 51°24.024 2°25.606 -999 4.578291 34.596822 -0.949796
2005-08-24 08:27:24 51°24.239 2°25.669 -999 4.577565 34.59067 -0.949796
2005-08-24 08:28:23 51°24.455 2°25.717 -999 4.572687 34.541361 -0.949796
2005-08-24 08:29:24 51°24.682 2°25.78 -999 4.570092 34.511404 -0.949796
2005-08-24 08:30:24 51°24.901 2°25.843 -999 4.579433 34.610501 -0.949796
2005-08-24 08:31:23 51°25.118 2°25.893 -999 4.576631 34.581424 -0.949796
2005-08-24 08:32:24 51°25.34 2°25.958 -999 4.57715 34.600522 -0.949796
2005-08-24 08:33:24 51°25.559 2°26.01 -999 4.574867 34.58519 -0.949796
2005-08-24 08:34:23 51°25.772 2°26.067 -999 4.573414 34.57756 -0.949796
2005-08-24 08:35:24 51°25.99 2°26.132 -999 4.572583 34.566517 -0.949796
2005-08-24 08:36:23 51°26.204 2°26.196 -999 4.572168 34.571018 -0.949796
2005-08-24 08:37:24 51°26.429 2°26.251 -999 4.570715 34.561381 -0.949796
2005-08-24 08:38:25 51°26.647 2°26.314 -999 4.570508 34.556281 -0.949796
2005-08-24 08:39:24 51°26.864 2°26.377 -999 4.570508 34.562963 -0.949796
2005-08-24 08:40:23 51°27.08 2°26.445 -999 4.570508 34.567643 -0.949796
2005-08-24 08:41:23 51°27.296 2°26.511 -999 4.57165 34.582 -0.949796
2005-08-24 08:42:24 51°27.513 2°26.585 -999 4.572272 34.589955 -0.949796
2005-08-24 08:43:24 51°27.73 2°26.657 -999 4.57331 34.604778 -0.949796
2005-08-24 08:44:24 51°27.946 2°26.729 -999 4.57767 34.653142 -0.949796
2005-08-24 08:45:25 51°28.162 2°26.801 -999 4.579746 34.668738 -0.949796
2005-08-24 08:46:24 51°28.376 2°26.862 -999 4.5785 34.648784 -0.949796
2005-08-24 08:47:23 51°28.586 2°26.93 -999 4.578915 34.654987 -0.949796
2005-08-24 08:48:23 51°28.794 2°26.916 -999 4.578915 34.661024 -0.949796
2005-08-24 08:49:24 51°28.943 2°26.648 -999 4.582237 34.701963 -0.949796
2005-08-24 08:50:24 51°29.028 2°26.314 -999 4.583483 34.738098 -0.949796
2005-08-24 08:51:24 51°29.091 2°25.968 -999 4.584728 34.757436 -0.949796
2005-08-24 08:52:24 51°29.156 2°25.622 -999 4.584936 34.767963 -0.949796
2005-08-24 08:53:24 51°29.214 2°25.275 -999 4.587531 34.783946 -0.949796
2005-08-24 08:54:24 51°29.271 2°24.929 -999 4.587427 34.770928 -0.949796
2005-08-24 08:55:25 51°29.329 2°24.575 -999 4.589502 34.777104 -0.949796
2005-08-24 08:56:24 51°29.385 2°24.227 -999 4.587115 34.752118 -0.949796
2005-08-24 08:57:25 51°29.509 2°23.931 -999 4.588672 34.775442 -0.949796
2005-08-24 08:58:24 51°29.699 2°23.778 -999 4.586597 34.779379 -0.949796
2005-08-24 08:59:23 51°29.893 2°23.86 -999 4.585455 34.793969 -0.949796
2005-08-24 09:00:24 51°30.07 2°24.048 -999 4.584625 34.795688 -0.949796
2005-08-24 09:01:25 51°30.243 2°24.233 -999 4.585559 34.796878 -0.949796
2005-08-24 09:02:25 51°30.421 2°24.41 -999 4.583899 34.786131 -0.949796
2005-08-24 09:03:24 51°30.604 2°24.582 -999 4.585767 34.804724 -0.949796
2005-08-24 09:04:24 51°30.788 2°24.756 -999 4.585248 34.805715 -0.949796
2005-08-24 09:05:25 51°30.971 2°24.925 -999 4.583069 34.789875 -0.949796
2005-08-24 09:06:23 51°31.145 2°25.086 -999 4.585041 34.805977 -0.949796
2005-08-24 09:07:22 51°31.323 2°25.249 -999 4.584833 34.806238 -0.949796
2005-08-24 09:08:22 51°31.5 2°25.42 -999 4.584729 34.806707 -0.949796
2005-08-24 09:09:23 51°31.681 2°25.607 -999 4.585144 34.808212 -0.949796
2005-08-24 09:10:24 51°31.865 2°25.787 -999 4.585144 34.809564 -0.949796
2005-08-24 09:11:22 51°32.04 2°25.947 -999 4.585663 34.809923 -0.949796
2005-08-24 09:12:24 51°32.217 2°26.14 -999 4.585767 34.808779 -0.949796
2005-08-24 09:13:25 51°32.387 2°26.337 -999 4.585767 34.799994 -0.949796
2005-08-24 09:14:24 51°32.554 2°26.526 -999 4.586078 34.797239 -0.949796
2005-08-24 09:15:25 51°32.724 2°26.729 -999 4.585352 34.78971 -0.949796
2005-08-24 09:16:24 51°32.889 2°26.929 -999 4.583587 34.76796 -0.949796
2005-08-24 09:17:24 51°33.052 2°27.128 -999 4.583275 34.757221 -0.949796
2005-08-24 09:18:25 51°33.223 2°27.315 -999 4.581926 34.74171 -0.949796
2005-08-24 09:19:23 51°33.393 2°27.489 -999 4.581407 34.729891 -0.949796
2005-08-24 09:20:24 51°33.571 2°27.682 -999 4.580992 34.71896 -0.949796
2005-08-24 09:21:24 51°33.745 2°27.874 -999 4.580473 34.703117 -0.949796
2005-08-24 09:22:24 51°33.921 2°28.052 -999 4.580161 34.689048 -0.916087
2005-08-24 09:23:24 51°34.095 2°28.23 -999 4.580161 34.682331 -0.949796
2005-08-24 09:24:24 51°34.271 2°28.404 -999 4.579746 34.674779 -0.949796
2005-08-24 09:25:24 51°34.44 2°28.586 -999 4.579642 34.66249 -0.949796
2005-08-24 09:26:24 51°34.608 2°28.766 -999 4.57933 34.663204 -0.916087
2005-08-24 09:27:24 51°34.783 2°28.943 -999 4.579434 34.664755 -0.949796
2005-08-24 09:28:22 51°34.957 2°29.11 -999 4.579642 34.672556 -0.949796
2005-08-24 09:29:25 51°35.139 2°29.299 -999 4.579953 34.686614 -0.949796
2005-08-24 09:30:24 51°35.315 2°29.478 -999 4.579435 34.691616 -0.949796
2005-08-24 09:31:25 51°35.484 2°29.667 -999 4.579227 34.699938 -0.949796
2005-08-24 09:32:24 51°35.655 2°29.846 -999 4.578812 34.701121 -0.949796
2005-08-24 09:33:24 51°35.831 2°30.028 -999 4.578708 34.703603 -0.949796
2005-08-24 09:34:24 51°36.007 2°30.203 -999 4.578294 34.714882 -0.949796
2005-08-24 09:35:24 51°36.179 2°30.382 -999 4.577671 34.717672 -0.949796
2005-08-24 09:36:24 51°36.349 2°30.564 -999 4.577048 34.715746 -0.949796
2005-08-24 09:37:24 51°36.52 2°30.745 -999 4.57736 34.718393 -0.949796
2005-08-24 09:38:24 51°36.696 2°30.917 -999 4.577152 34.72404 -0.949796
2005-08-24 09:39:24 51°36.876 2°31.09 -999 4.577152 34.725388 -0.949796
2005-08-24 09:40:24 51°37.054 2°31.271 -999 4.577567 34.73094 -0.949796
2005-08-24 09:41:24 51°37.23 2°31.449 -999 4.577567 34.736335 -0.949796
2005-08-24 09:42:25 51°37.405 2°31.628 -999 4.577464 34.73815 -0.949796
2005-08-24 09:43:24 51°37.578 2°31.796 -999 4.57736 34.737941 -0.949796
2005-08-24 09:44:24 51°37.755 2°31.964 -999 4.577256 34.732338 -0.949796
2005-08-24 09:45:24 51°37.925 2°32.133 -999 4.577671 34.737892 -0.949796
2005-08-24 09:46:24 51°38.093 2°32.302 -999 4.577671 34.741264 -0.949796
2005-08-24 09:47:25 51°38.268 2°32.477 -999 4.57736 34.735918 -0.949796
2005-08-24 09:48:24 51°38.442 2°32.652 -999 4.57736 34.728501 -0.949796
2005-08-24 09:49:24 51°38.622 2°32.82 -999 4.578294 34.722965 -0.949796
2005-08-24 09:50:24 51°38.792 2°32.991 -999 4.578086 34.737376 -0.949796
2005-08-24 09:51:24 51°38.964 2°33.166 -999 4.57736 34.737267 -0.949796
2005-08-24 09:52:24 51°39.137 2°33.336 -999 4.577568 34.74308 -0.949796
2005-08-24 09:53:25 51°39.306 2°33.505 -999 4.577464 34.744896 -0.949796
2005-08-24 09:54:24 51°39.477 2°33.675 -999 4.577464 34.743546 -0.949796
2005-08-24 09:55:25 51°39.648 2°33.842 -999 4.577464 34.740173 -0.949796
2005-08-24 09:56:24 51°39.818 2°34.015 -999 4.577879 34.738983 -0.949796
2005-08-24 09:57:24 51°39.985 2°34.188 -999 4.578294 34.736444 -0.949796
2005-08-24 09:58:24 51°40.152 2°34.355 -999 4.578501 34.739557 -0.949796
2005-08-24 09:59:22 51°40.311 2°34.515 -999 4.578709 34.742671 -0.949796
2005-08-24 10:00:23 51°40.485 2°34.684 -999 4.578709 34.746719 -0.949796
2005-08-24 10:01:22 51°40.65 2°34.846 -999 4.578606 34.753258 -0.949796
2005-08-24 10:02:24 51°40.829 2°35.024 -999 4.578502 34.7571 -0.949796
2005-08-24 10:03:24 51°41.002 2°35.19 -999 4.578398 34.762294 -0.949796
2005-08-24 10:04:24 51°41.17 2°35.353 -999 4.577983 34.767542 -0.949796
2005-08-24 10:05:25 51°41.273 2°35.617 -999 4.578087 34.77248 -0.949796
2005-08-24 10:06:22 51°41.229 2°35.91 -999 4.577672 34.772325 -0.949796
2005-08-24 10:07:24 51°41.137 2°36.22 -999 4.577153 34.765205 -0.949796
2005-08-24 10:08:25 51°41.049 2°36.523 -999 4.577464 34.76245 -0.949796
2005-08-24 10:09:24 51°40.961 2°36.826 -999 4.577464 34.761099 -0.949796
2005-08-24 10:10:25 51°40.863 2°37.134 -999 4.577568 34.757254 -0.949796
2005-08-24 10:11:24 51°40.765 2°37.436 -999 4.57736 34.758189 -0.949796
2005-08-24 10:12:23 51°40.669 2°37.735 -999 4.577775 34.759696 -0.949796
2005-08-24 10:13:25 51°40.56 2°38.044 -999 4.577983 34.74054 -0.949796
2005-08-24 10:14:23 51°40.462 2°38.337 -999 4.578397 34.719805 -0.949796
2005-08-24 10:15:25 51°40.355 2°38.641 -999 4.578397 34.705668 -0.949796
2005-08-24 10:16:24 51°40.254 2°38.939 -999 4.578085 34.680162 -0.949796
2005-08-24 10:17:25 51°40.146 2°39.24 -999 4.577981 34.659809 -0.949796
2005-08-24 10:18:24 51°40.044 2°39.536 -999 4.577773 34.63257 -0.949796
2005-08-24 10:19:24 51°39.938 2°39.835 -999 4.577358 34.616998 -0.949796
2005-08-24 10:20:24 51°39.834 2°40.129 -999 4.57715 34.603197 -0.949796
2005-08-24 10:21:23 51°39.728 2°40.425 -999 4.577046 34.599642 -0.949796
2005-08-24 10:22:24 51°39.624 2°40.73 -999 4.577669 34.610269 -0.949796
2005-08-24 10:23:24 51°39.52 2°41.022 -999 4.577773 34.620517 -0.949796
2005-08-24 10:24:25 51°39.412 2°41.314 -999 4.57414 34.586389 -0.949796
2005-08-24 10:25:23 51°39.316 2°41.6 -999 4.572894 34.546454 -0.949796
2005-08-24 10:26:25 51°39.213 2°41.903 -999 4.573205 34.532417 -0.949796
2005-08-24 10:27:24 51°39.03 2°42.069 -999 4.574243 34.536533 -0.949796
2005-08-24 10:28:24 51°38.802 2°42.082 -999 4.57061 34.487169 -0.916087
2005-08-24 10:29:24 51°38.573 2°42.085 -999 4.568846 34.458298 -0.949796
2005-08-24 10:30:24 51°38.34 2°42.086 -999 4.567392 34.438055 -0.916087
2005-08-24 10:31:24 51°38.107 2°42.085 -999 4.566043 34.422014 -0.949796
2005-08-24 10:32:24 51°37.874 2°42.084 -999 4.564382 34.402687 -0.949796
2005-08-24 10:33:23 51°37.648 2°42.085 -999 4.563033 34.385332 -0.949796
2005-08-24 10:34:22 51°37.424 2°42.037 -999 4.56158 34.367771 -0.949796
2005-08-24 10:35:24 51°37.247 2°41.773 -999 4.560334 34.350645 -0.949796
2005-08-24 10:36:25 51°37.208 2°41.414 -999 4.559193 34.342334 -0.949796
2005-08-24 10:37:23 51°37.246 2°41.056 -999 4.55857 34.33774 -0.916087
2005-08-24 10:38:24 51°37.29 2°40.685 -999 4.558778 34.342798 -0.916087
2005-08-24 10:39:24 51°37.329 2°40.316 -999 4.559608 34.351789 -0.916087
2005-08-24 10:40:24 51°37.365 2°39.956 -999 4.561061 34.366038 -0.74754
2005-08-24 10:41:24 51°37.395 2°39.591 -999 4.563656 34.39059 -0.916087
2005-08-24 10:42:24 51°37.425 2°39.226 -999 4.565316 34.4119 -0.916087
2005-08-24 10:43:23 51°37.452 2°38.876 -999 4.56459 34.414384 0.128905
2005-08-24 10:44:25 51°37.476 2°38.502 -999 4.568949 34.463826 -0.916087
2005-08-24 10:45:25 51°37.5 2°38.144 -999 4.568742 34.47204 -0.814958
2005-08-24 10:46:23 51°37.523 2°37.796 -999 4.569365 34.482625 -0.916087
2005-08-24 10:47:24 51°37.549 2°37.434 -999 4.569157 34.490184 -0.916087
2005-08-24 10:48:24 51°37.57 2°37.076 -999 4.569884 34.504319 -0.916087
2005-08-24 10:49:25 51°37.592 2°36.711 -999 4.570818 34.51955 -0.916087
2005-08-24 10:50:25 51°37.615 2°36.351 -999 4.569884 34.514311 -0.848668
2005-08-24 10:51:23 51°37.642 2°36.012 -999 4.571026 34.52064 0.027777
2005-08-24 10:52:24 51°37.664 2°35.646 -999 4.562516 34.47526 -0.916087
2005-08-24 10:53:24 51°37.688 2°35.289 -999 4.568225 34.550298 0.196324
2005-08-24 10:54:24 51°37.716 2°34.932 -999 4.57684 34.656161 -0.916087
2005-08-24 10:55:23 51°37.743 2°34.571 -999 4.57466 34.662504 -0.916087
2005-08-24 10:56:25 51°37.752 2°34.189 -999 4.573623 34.659737 -0.882377
2005-08-24 10:57:24 51°37.623 2°33.891 -999 4.573623 34.659066 -0.781249
2005-08-24 10:58:24 51°37.419 2°33.735 -999 4.573934 34.657679 -0.916087
2005-08-24 10:59:25 51°37.198 2°33.626 -999 4.574453 34.655369 -0.949796
2005-08-24 11:00:24 51°36.977 2°33.517 -999 4.574764 34.655326 -0.916087
2005-08-24 11:01:24 51°36.756 2°33.408 -999 4.574868 34.649493 -0.949796
2005-08-24 11:02:24 51°36.536 2°33.302 -999 4.575075 34.643873 -0.916087
2005-08-24 11:03:24 51°36.319 2°33.195 -999 4.575386 34.639807 -0.882377
2005-08-24 11:04:25 51°36.097 2°33.085 -999 4.575283 34.633562 -0.916087
2005-08-24 11:05:25 51°35.879 2°32.976 -999 4.575282 34.61748 -0.916087
2005-08-24 11:06:24 51°35.665 2°32.868 -999 4.57549 34.607858 -0.949796
2005-08-24 11:07:24 51°35.448 2°32.757 -999 4.57549 34.598491 -0.949796
2005-08-24 11:08:24 51°35.225 2°32.639 -999 4.575489 34.59314 -0.949796
2005-08-24 11:09:25 51°35.004 2°32.525 -999 4.575801 34.589092 -0.949796
2005-08-24 11:10:24 51°34.786 2°32.412 -999 4.575801 34.585082 -0.916087
2005-08-24 11:11:24 51°34.567 2°32.297 -999 4.576008 34.581495 -0.916087
2005-08-24 11:12:25 51°34.345 2°32.175 -999 4.576423 34.58167 -0.916087
2005-08-24 11:13:24 51°34.126 2°32.058 -999 4.576319 34.582796 -0.916087
2005-08-24 11:14:25 51°33.906 2°31.941 -999 4.576216 34.586594 -0.916087
2005-08-24 11:15:24 51°33.687 2°31.82 -999 4.566252 34.506226 -0.916087
2005-08-24 11:16:25 51°33.466 2°31.699 -999 4.57113 34.557549 -0.916087
2005-08-24 11:17:24 51°33.252 2°31.589 -999 4.572687 34.579427 -0.916087
2005-08-24 11:18:24 51°33.031 2°31.468 -999 4.575075 34.605008 -0.916087
2005-08-24 11:19:24 51°32.814 2°31.358 -999 4.576632 34.62758 -0.916087
2005-08-24 11:20:25 51°32.59 2°31.236 -999 4.567498 34.556172 -0.916087
2005-08-24 11:21:24 51°32.369 2°31.114 -999 4.574348 34.618938 -0.916087
2005-08-24 11:22:25 51°32.145 2°30.991 -999 4.574764 34.625139 -0.916087
2005-08-24 11:23:24 51°31.924 2°30.924 -999 4.573518 34.616586 -0.916087
2005-08-24 11:24:25 51°31.708 2°31.039 -999 4.571131 34.59768 -0.916087
2005-08-24 11:25:24 51°31.518 2°31.211 -999 4.573518 34.617256 -0.916087
2005-08-24 11:26:24 51°31.326 2°31.389 -999 4.57549 34.622589 -0.949796
2005-08-24 11:27:25 51°31.135 2°31.573 -999 4.571857 34.567044 -0.949796
2005-08-24 11:28:25 51°30.953 2°31.758 -999 4.567186 34.501469 1.241315
2005-08-24 11:29:24 51°30.775 2°31.953 -999 4.55992 34.421373 -0.949796
2005-08-24 11:30:25 51°30.597 2°32.158 -999 4.565836 34.460102 -0.949796
2005-08-24 11:31:25 51°30.419 2°32.359 -999 4.563553 34.431495 -0.916087
2005-08-24 11:32:24 51°30.245 2°32.559 -999 4.562722 34.409213 -0.949796
2005-08-24 11:33:24 51°30.068 2°32.758 -999 4.561788 34.395354 -0.916087
2005-08-24 11:34:24 51°29.897 2°32.96 -999 4.560231 34.377567 -0.916087
2005-08-24 11:35:25 51°29.814 2°33.256 -999 4.560127 34.374041 -0.949796
2005-08-24 11:36:24 51°29.798 2°33.562 -999 4.55992 34.370963 -0.916087
2005-08-24 11:37:25 51°29.784 2°33.871 -999 4.559193 34.363505 -0.916087
2005-08-24 11:38:24 51°29.766 2°34.18 -999 4.548606 34.23062 -0.949796
2005-08-24 11:39:25 51°29.744 2°34.505 -999 4.537293 34.09005 -0.949796
2005-08-24 11:40:24 51°29.719 2°34.823 -999 4.53885 34.11232 -0.949796
2005-08-24 11:41:24 51°29.698 2°35.141 -999 4.538539 34.109699 -0.949796
2005-08-24 11:42:25 51°29.687 2°35.466 -999 4.536878 34.088521 -0.916087
2005-08-24 11:43:25 51°29.677 2°35.793 -999 4.53501 34.070839 -0.949796
2005-08-24 11:44:24 51°29.669 2°36.112 -999 4.529924 33.996075 -0.916087
2005-08-24 11:45:24 51°29.664 2°36.433 -999 4.526292 33.954481 -0.916087
2005-08-24 11:46:25 51°29.655 2°36.749 -999 4.525358 33.947287 -0.916087
2005-08-24 11:47:24 51°29.64 2°37.055 -999 4.523905 33.927278 -0.916087
2005-08-24 11:48:24 51°29.63 2°37.362 -999 4.520376 33.889206 -0.916087
2005-08-24 11:49:24 51°29.611 2°37.676 -999 4.516536 33.849195 -0.949796
2005-08-24 11:50:25 51°29.593 2°37.996 -999 4.513215 33.819389 -0.916087
2005-08-24 11:51:24 51°29.483 2°38.262 -999 4.51197 33.805704 -0.949796
2005-08-24 11:52:24 51°29.276 2°38.369 -999 4.510725 33.792023 -0.916087
2005-08-24 11:53:25 51°29.048 2°38.427 -999 4.508753 33.780015 -0.916087
2005-08-24 11:54:24 51°28.83 2°38.517 -999 4.507093 33.773851 -0.916087
2005-08-24 11:55:25 51°28.61 2°38.616 -999 4.505848 33.761464 -0.882377
2005-08-24 11:56:24 51°28.392 2°38.71 -999 4.505432 33.758629 -0.916087
2005-08-24 11:57:24 51°28.174 2°38.811 -999 4.505017 33.756441 -0.882377
2005-08-24 11:58:25 51°27.952 2°38.91 -999 4.504706 33.753829 -0.916087
2005-08-24 11:59:25 51°27.733 2°38.999 -999 4.504602 33.752959 -0.916087
2005-08-24 12:00:25 51°27.513 2°39.092 -999 4.504291 33.751641 -0.916087
2005-08-24 12:01:25 51°27.295 2°39.188 -999 4.503357 33.745746 -0.916087
2005-08-24 12:02:25 51°27.075 2°39.273 -999 4.503357 33.742514 -0.882377
2005-08-24 12:03:24 51°26.857 2°39.354 -999 4.502838 33.739454 -0.882377
2005-08-24 12:04:25 51°26.634 2°39.437 -999 4.5018 33.732689 -0.916087
2005-08-24 12:05:22 51°26.424 2°39.519 -999 4.500348 33.721795 -0.916087
2005-08-24 12:06:25 51°26.194 2°39.614 -999 4.499517 33.710311 -0.916087
2005-08-24 12:07:25 51°25.967 2°39.639 -999 4.499206 33.703826 -0.916087
2005-08-24 12:08:24 51°25.746 2°39.647 -999 4.496197 33.677303 -0.916087
2005-08-24 12:09:25 51°25.521 2°39.652 -999 4.478244 33.494133 -0.916087
2005-08-24 12:10:24 51°25.302 2°39.659 -999 4.466311 33.391721 -0.916087
2005-08-24 12:11:25 51°25.07 2°39.665 -999 4.464962 33.382991 -0.949796
2005-08-24 12:12:25 51°24.845 2°39.681 -999 4.470877 33.442071 -0.916087
2005-08-24 12:13:22 51°24.633 2°39.725 -999 4.469735 33.438276 -0.916087
2005-08-24 12:14:24 51°24.407 2°39.81 -999 4.46268 33.377939 -0.916087
2005-08-24 12:15:23 51°24.192 2°39.882 -999 4.458218 33.336138 -0.882377
2005-08-24 12:16:25 51°23.961 2°39.951 -999 4.454897 33.307724 -0.882377
2005-08-24 12:17:23 51°23.746 2°40.013 -999 4.453237 33.292563 -0.916087
2005-08-24 12:18:25 51°23.516 2°40.078 -999 4.451058 33.269247 -0.916087
2005-08-24 12:19:25 51°23.293 2°40.142 -999 4.450954 33.263926 -0.916087
2005-08-24 12:20:25 51°23.073 2°40.207 -999 4.453548 33.286252 -0.916087
2005-08-24 12:21:25 51°22.855 2°40.265 -999 4.452718 33.276129 -0.916087
2005-08-24 12:22:25 51°22.639 2°40.323 -999 4.432588 33.084495 -0.916087
2005-08-24 12:23:25 51°22.422 2°40.379 -999 4.425429 33.023475 -0.916087
2005-08-24 12:24:25 51°22.206 2°40.436 -999 4.415261 32.932972 -0.916087
2005-08-24 12:25:25 51°21.989 2°40.496 -999 4.405716 32.850861 -0.916087
2005-08-24 12:26:25 51°21.773 2°40.555 -999 4.404264 32.843769 -0.882377
2005-08-24 12:27:23 51°21.558 2°40.615 -999 4.404264 32.842514 -0.882377
2005-08-24 12:28:25 51°21.335 2°40.68 -999 4.403123 32.836761 -0.882377
2005-08-24 12:29:25 51°21.115 2°40.746 -999 4.390569 32.722736 -0.882377
2005-08-24 12:30:24 51°20.903 2°40.823 -999 4.397728 32.79178 -0.882377
2005-08-24 12:31:25 51°20.723 2°41.025 -999 4.401048 32.823221 -0.848668
2005-08-24 12:32:24 51°20.604 2°41.3 -999 4.400114 32.818569 -0.848668
2005-08-24 12:33:24 51°20.498 2°41.595 -999 4.397417 32.791064 -0.848668
2005-08-24 12:34:25 51°20.39 2°41.892 -999 4.39337 32.759211 -0.882377
2005-08-24 12:35:25 51°20.285 2°42.183 -999 4.390569 32.730234 -0.848668
2005-08-24 12:36:25 51°20.185 2°42.483 -999 4.384448 32.674236 -0.882377
2005-08-24 12:37:25 51°20.104 2°42.786 -999 4.361625 32.469309 -0.882377
2005-08-24 12:38:25 51°20.03 2°43.099 -999 4.347724 32.349987 -0.882377
2005-08-24 12:39:25 51°19.951 2°43.403 -999 4.327703 32.180526 -0.848668
2005-08-24 12:40:25 51°19.87 2°43.706 -999 4.313284 32.048562 -0.848668
2005-08-24 12:41:25 51°19.792 2°44.017 -999 4.306957 32.003986 -0.814958
2005-08-24 12:42:24 51°19.716 2°44.318 -999 4.304053 31.982932 -0.814958
2005-08-24 12:43:24 51°19.629 2°44.629 -999 4.30146 31.960194 -0.814958
2005-08-24 12:44:25 51°19.542 2°44.947 -999 4.297415 31.92602 -0.781249
2005-08-24 12:45:24 51°19.46 2°45.253 -999 4.290465 31.86594 -0.781249
2005-08-24 12:46:24 51°19.375 2°45.561 -999 4.280197 31.773525 -0.74754
2005-08-24 12:47:25 51°19.284 2°45.875 -999 4.274596 31.725294 -0.781249
2005-08-24 12:48:25 51°19.197 2°46.182 -999 4.271173 31.690292 -0.781249
2005-08-24 12:49:25 51°19.108 2°46.484 -999 4.260697 31.605343 -0.74754
2005-08-24 12:50:25 51°19.017 2°46.787 -999 4.259038 31.594612 -0.74754
2005-08-24 12:51:25 51°18.929 2°47.091 -999 4.261735 31.610921 -0.71383
2005-08-24 12:52:25 51°18.839 2°47.401 -999 4.257171 31.580958 -0.71383
2005-08-24 12:53:24 51°18.753 2°47.71 -999 4.255719 31.560517 -0.680121
2005-08-24 12:54:25 51°18.666 2°48.027 -999 4.252608 31.541971 -0.646411
2005-08-24 12:55:25 51°18.582 2°48.343 -999 4.255927 31.564037 -0.578993
2005-08-24 12:56:25 51°18.5 2°48.664 -999 4.253853 31.559491 -0.578993
2005-08-24 12:57:25 51°18.412 2°48.98 -999 4.24763 31.510366 -0.511574
2005-08-24 12:58:24 51°18.327 2°49.291 -999 4.243689 31.466343 -0.444155
2005-08-24 12:59:25 51°18.24 2°49.609 -999 4.236118 31.404895 -0.410446
2005-08-24 13:00:24 51°18.15 2°49.922 -999 4.227924 31.326379 -0.410446
2005-08-24 13:01:25 51°18.064 2°50.24 -999 4.221287 31.275678 -0.410446
2005-08-24 13:02:24 51°17.978 2°50.555 -999 4.225954 31.302936 -0.444155
2005-08-24 13:03:25 51°17.889 2°50.881 -999 4.225539 31.304275 -0.410446
2005-08-24 13:04:25 51°17.806 2°51.199 -999 4.225228 31.318399 -0.343027
2005-08-24 13:05:24 51°17.722 2°51.51 -999 4.236429 31.428425 -0.275608
2005-08-24 13:06:24 51°17.64 2°51.832 -999 4.246074 31.514304 -0.241899
2005-08-24 13:07:24 51°17.52 2°52.116 -999 4.238711 31.468317 -0.208189
2005-08-24 13:08:25 51°17.339 2°52.324 -999 4.235496 31.44648 -0.17448
2005-08-24 13:09:24 51°17.149 2°52.492 -999 4.232903 31.423799 -0.107061
2005-08-24 13:10:24 51°16.944 2°52.62 -999 4.229688 31.394769 -0.107061
2005-08-24 13:11:24 51°16.735 2°52.735 -999 4.225437 31.367931 -0.107061
2005-08-24 13:12:24 51°16.527 2°52.86 -999 4.224607 31.358066 -0.073352
2005-08-24 13:13:25 51°16.319 2°52.99 -999 4.228755 31.390631 -0.107061
2005-08-24 13:14:24 51°16.12 2°53.119 -999 4.23477 31.432667 -0.107061
2005-08-24 13:15:25 51°15.913 2°53.253 -999 4.230725 31.39617 -0.17448
2005-08-24 13:16:24 51°15.712 2°53.38 -999 4.225747 31.352557 -0.17448
2005-08-24 13:17:25 51°15.504 2°53.511 -999 4.22274 31.324074 -0.208189
2005-08-24 13:18:25 51°15.3 2°53.584 -999 4.219524 31.268845 -0.208189
2005-08-24 13:19:25 51°15.11 2°53.756 -999 4.193599 31.06701 -0.039642
2005-08-24 13:20:25 51°14.942 2°53.981 -999 4.185096 31.009753 0.128905
2005-08-24 13:21:25 51°14.788 2°54.213 -999 4.181363 30.971227 -0.107061
2005-08-24 13:22:25 51°14.662 2°54.401 -999 4.175763 30.914368 1.005349
2005-08-24 13:23:25 51°14.537 2°54.66 -999 4.176281 30.91806 11.590101
2005-08-24 13:24:25 51°14.417 2°54.931 -999 4.107122 30.330477 1.106477
2005-08-24 13:25:24 51°14.302 2°55.188 -999 4.107329 30.332183 1.106477
2005-08-24 13:26:26 51°14.187 2°55.367 -999 4.107225 30.330753 1.106477
2005-08-24 13:27:26 51°14.074 2°55.462 -999 4.107329 30.330452 1.072768
2005-08-24 13:28:26 51°13.942 2°55.556 -999 4.107433 30.330728 1.072768
2005-08-24 13:29:26 51°13.808 2°55.658 -999 4.107536 30.326964 1.072768
2005-08-24 13:30:26 51°13.71 2°55.794 -999 4.107743 30.326363 1.072768
2005-08-24 13:31:26 51°13.659 2°55.908 -999 4.108054 30.327768 1.039059
2005-08-24 13:32:26 51°13.619 2°56.008 -999 4.108365 30.328596 1.039059
2005-08-24 13:33:26 51°13.602 2°56.083 -999 4.108469 30.327142 1.039059